createdAt,value
2023-05-20T00:01:56.713Z,3.47
2023-05-20T00:04:24.675Z,1.73
2023-05-20T00:06:52.758Z,4.20
2023-05-20T00:09:20.704Z,1.73
2023-05-20T00:11:48.617Z,2.20
2023-05-20T00:14:16.502Z,3.13
2023-05-20T00:16:45.811Z,2.20
2023-05-20T00:19:13.772Z,3.17
2023-05-20T00:21:41.876Z,2.13
2023-05-20T00:24:09.883Z,2.40
2023-05-20T00:26:37.907Z,1.70
2023-05-20T00:29:06.322Z,2.20
2023-05-20T00:31:34.301Z,2.93
2023-05-20T00:34:03.606Z,2.37
2023-05-20T00:36:31.445Z,2.23
2023-05-20T00:38:59.843Z,2.63
2023-05-20T00:41:27.897Z,2.10
2023-05-20T00:43:56.500Z,2.13
2023-05-20T00:46:25.519Z,1.90
2023-05-20T00:48:53.905Z,1.87
2023-05-20T00:51:23.184Z,3.10
2023-05-20T00:53:51.341Z,2.67
2023-05-20T00:56:19.650Z,2.13
2023-05-20T00:58:47.688Z,2.73
2023-05-20T01:01:15.593Z,2.70
2023-05-20T01:03:43.617Z,2.23
2023-05-20T01:06:11.536Z,2.20
2023-05-20T01:08:41.140Z,3.03
2023-05-20T01:11:12.240Z,3.00
2023-05-20T01:13:44.597Z,2.80
2023-05-20T01:16:16.066Z,2.20
2023-05-20T01:18:45.180Z,1.77
2023-05-20T01:21:15.150Z,2.80
2023-05-20T01:23:44.398Z,2.30
2023-05-20T01:26:13.729Z,2.30
2023-05-20T01:28:45.868Z,2.43
2023-05-20T01:31:20.121Z,4.77
2023-05-20T01:33:51.731Z,3.83
2023-05-20T01:36:22.074Z,3.40
2023-05-20T01:38:53.885Z,2.63
2023-05-20T01:41:22.978Z,2.40
2023-05-20T01:43:50.944Z,2.40
2023-05-20T01:46:18.981Z,2.13
2023-05-20T01:48:46.967Z,3.30
2023-05-20T01:51:14.982Z,2.23
2023-05-20T01:53:42.906Z,2.70
2023-05-20T01:56:12.136Z,3.80
2023-05-20T01:58:40.076Z,2.73
2023-05-20T02:01:08.040Z,2.10
2023-05-20T02:03:36.070Z,5.10
2023-05-20T02:06:04.193Z,3.53
2023-05-20T02:08:32.070Z,4.17
2023-05-20T02:10:59.894Z,2.57
2023-05-20T02:13:29.131Z,2.90
2023-05-20T02:15:57.094Z,1.93
2023-05-20T02:18:26.490Z,2.60
2023-05-20T02:20:54.445Z,2.93
2023-05-20T02:23:22.336Z,3.27
2023-05-20T02:25:50.612Z,3.90
2023-05-20T02:28:18.468Z,4.10
2023-05-20T02:30:48.198Z,2.63
2023-05-20T02:33:16.186Z,4.13
2023-05-20T02:35:44.263Z,5.47
2023-05-20T02:38:12.367Z,2.40
2023-05-20T02:40:40.546Z,5.90
2023-05-20T02:43:08.485Z,2.37
2023-05-20T02:45:36.760Z,3.53
2023-05-20T02:48:06.545Z,3.20
2023-05-20T02:50:34.490Z,3.57
2023-05-20T02:53:02.483Z,4.40
2023-05-20T02:55:30.322Z,2.43
2023-05-20T02:57:58.220Z,2.40
2023-05-20T03:00:28.658Z,2.93
2023-05-20T03:02:56.595Z,2.03
2023-05-20T03:05:27.511Z,2.83
2023-05-20T03:07:55.393Z,3.07
2023-05-20T03:10:23.299Z,2.73
2023-05-20T03:12:51.199Z,3.03
2023-05-20T03:15:19.240Z,3.27
2023-05-20T03:17:47.168Z,2.80
2023-05-20T03:20:16.855Z,3.20
2023-05-20T03:22:46.035Z,2.77
2023-05-20T03:25:13.975Z,3.43
2023-05-20T03:27:42.899Z,3.00
2023-05-20T03:30:11.429Z,3.10
2023-05-20T03:32:39.622Z,2.50
2023-05-20T03:35:08.799Z,2.93
2023-05-20T03:37:37.215Z,3.00
2023-05-20T03:40:08.099Z,7.87
2023-05-20T03:42:36.010Z,5.27
2023-05-20T03:45:04.359Z,2.90
2023-05-20T03:47:32.468Z,2.80
2023-05-20T03:50:00.624Z,10.00
2023-05-20T03:52:28.571Z,5.63
2023-05-20T03:54:57.080Z,4.13
2023-05-20T03:57:26.311Z,3.10
2023-05-20T03:59:54.407Z,3.00
2023-05-20T04:02:22.442Z,2.73
2023-05-20T04:04:52.906Z,2.87
2023-05-20T04:07:20.914Z,3.10
2023-05-20T04:09:48.992Z,3.43
2023-05-20T04:12:19.317Z,4.40
2023-05-20T04:14:50.017Z,3.30
2023-05-20T04:17:18.016Z,3.80
2023-05-20T04:19:46.216Z,3.87
2023-05-20T04:22:14.121Z,3.80
2023-05-20T04:24:41.941Z,3.37
2023-05-20T04:27:11.144Z,4.93
2023-05-20T04:29:41.504Z,3.30
2023-05-20T04:32:11.635Z,4.23
2023-05-20T04:34:39.861Z,4.70
2023-05-20T04:37:10.135Z,3.13
2023-05-20T04:39:39.436Z,3.10
2023-05-20T04:42:07.388Z,3.73
2023-05-20T04:44:35.381Z,5.07
2023-05-20T04:47:04.500Z,3.40
2023-05-20T04:49:33.778Z,3.87
2023-05-20T04:52:01.920Z,3.33
2023-05-20T04:54:29.952Z,6.10
2023-05-20T04:56:57.944Z,3.03
2023-05-20T04:59:26.748Z,5.27
2023-05-20T05:01:54.757Z,3.27
2023-05-20T05:04:23.261Z,3.50
2023-05-20T05:06:52.710Z,4.47
2023-05-20T05:09:20.578Z,3.77
2023-05-20T05:11:48.437Z,2.87
2023-05-20T05:14:16.350Z,3.20
2023-05-20T05:16:44.223Z,3.57
2023-05-20T05:19:13.557Z,3.10
2023-05-20T05:21:41.574Z,3.93
2023-05-20T05:24:10.953Z,3.93
2023-05-20T05:26:38.878Z,3.07
2023-05-20T05:29:06.784Z,2.60
2023-05-20T05:31:34.748Z,2.87
2023-05-20T05:34:02.614Z,5.40
2023-05-20T05:36:31.401Z,4.00
2023-05-20T05:38:59.218Z,3.47
2023-05-20T05:41:28.402Z,3.77
2023-05-20T05:43:56.463Z,3.20
2023-05-20T05:46:24.710Z,3.40
2023-05-20T05:48:52.592Z,3.77
2023-05-20T05:51:20.660Z,3.40
2023-05-20T05:53:48.544Z,3.20
2023-05-20T05:56:16.436Z,4.40
2023-05-20T05:58:45.761Z,3.70
2023-05-20T06:01:13.706Z,3.53
2023-05-20T06:03:41.671Z,3.50
2023-05-20T06:06:09.635Z,3.13
2023-05-20T06:08:37.703Z,4.77
2023-05-20T06:11:05.579Z,3.73
2023-05-20T06:13:33.443Z,3.33
2023-05-20T06:16:02.716Z,3.87
2023-05-20T06:18:31.069Z,3.73
2023-05-20T06:20:59.790Z,3.80
2023-05-20T06:23:27.769Z,2.77
2023-05-20T06:25:59.243Z,5.30
2023-05-20T06:28:27.541Z,3.80
2023-05-20T06:30:56.040Z,4.00
2023-05-20T06:33:26.925Z,3.40
2023-05-20T06:35:56.475Z,4.10
2023-05-20T06:38:24.477Z,3.77
2023-05-20T06:40:52.611Z,4.60
2023-05-20T06:43:20.959Z,3.87
2023-05-20T06:45:49.095Z,4.07
2023-05-20T06:48:16.963Z,5.70
2023-05-20T06:50:46.411Z,3.17
2023-05-20T06:53:14.400Z,5.47
2023-05-20T06:55:42.324Z,4.37
2023-05-20T06:58:10.418Z,3.80
2023-05-20T07:00:39.183Z,3.77
2023-05-20T07:03:07.121Z,3.87
2023-05-20T07:05:35.195Z,4.50
2023-05-20T07:08:04.848Z,3.03
2023-05-20T07:10:33.035Z,3.40
2023-05-20T07:13:02.169Z,3.20
2023-05-20T07:15:30.118Z,3.87
2023-05-20T07:17:58.057Z,4.23
2023-05-20T07:20:25.970Z,3.30
2023-05-20T07:22:53.924Z,3.90
2023-05-20T07:25:23.326Z,3.47
2023-05-20T07:27:51.803Z,3.60
2023-05-20T07:30:19.773Z,3.63
2023-05-20T07:32:47.708Z,3.63
2023-05-20T07:35:15.807Z,3.47
2023-05-20T07:37:43.968Z,3.67
2023-05-20T07:40:12.501Z,3.60
2023-05-20T07:42:41.784Z,3.43
2023-05-20T07:45:10.960Z,4.40
2023-05-20T07:47:39.628Z,3.70
2023-05-20T07:50:08.405Z,3.30
2023-05-20T07:52:51.855Z,4.07
2023-05-20T07:55:24.349Z,4.27
2023-05-20T07:57:53.680Z,4.03
2023-05-20T08:00:22.026Z,3.30
2023-05-20T08:02:50.056Z,3.63
2023-05-20T08:05:18.340Z,3.47
2023-05-20T08:07:46.485Z,3.60
2023-05-20T08:10:14.448Z,4.30
2023-05-20T08:12:42.681Z,6.10
2023-05-20T08:15:12.813Z,3.90
2023-05-20T08:17:40.921Z,4.07
2023-05-20T08:20:11.460Z,7.13
2023-05-20T08:22:39.491Z,3.90
2023-05-20T08:25:11.108Z,4.80
2023-05-20T08:27:39.358Z,3.70
2023-05-20T08:30:09.979Z,6.20
2023-05-20T08:32:39.333Z,4.23
2023-05-20T08:35:09.278Z,6.00
2023-05-20T08:37:37.229Z,6.13
2023-05-20T08:40:06.563Z,5.20
2023-05-20T08:42:34.575Z,4.70
2023-05-20T08:45:02.977Z,4.53
2023-05-20T08:47:31.587Z,4.50
2023-05-20T08:50:01.050Z,3.80
2023-05-20T08:52:32.004Z,3.93
2023-05-20T08:55:00.824Z,4.10
2023-05-20T08:57:29.581Z,4.30
2023-05-20T08:59:57.760Z,3.90
2023-05-20T09:02:25.837Z,3.50
2023-05-20T09:04:53.949Z,4.37
2023-05-20T09:07:29.707Z,4.47
2023-05-20T09:09:58.048Z,4.00
2023-05-20T09:12:26.788Z,4.10
2023-05-20T09:14:54.707Z,6.27
2023-05-20T09:17:23.224Z,4.93
2023-05-20T09:19:52.012Z,4.60
2023-05-20T09:22:24.035Z,4.90
2023-05-20T09:24:53.802Z,4.40
2023-05-20T09:27:22.072Z,4.67
2023-05-20T09:29:50.202Z,4.77
2023-05-20T09:32:19.582Z,3.93
2023-05-20T09:34:49.042Z,4.90
2023-05-20T09:37:19.762Z,5.60
2023-05-20T09:40:00.209Z,4.70
2023-05-20T09:42:30.622Z,4.10
2023-05-20T09:44:59.993Z,4.23
2023-05-20T09:47:29.048Z,3.80
2023-05-20T09:49:58.496Z,4.13
2023-05-20T09:52:28.826Z,4.70
2023-05-20T09:54:58.516Z,3.93
2023-05-20T09:57:26.831Z,5.30
2023-05-20T09:59:55.099Z,4.40
2023-05-20T10:02:23.285Z,4.70
2023-05-20T10:04:53.543Z,4.70
2023-05-20T10:07:42.346Z,4.77
2023-05-20T10:10:25.986Z,4.60
2023-05-20T10:13:03.908Z,4.47
2023-05-20T10:15:50.101Z,4.40
2023-05-20T10:18:30.734Z,4.37
2023-05-20T10:20:58.754Z,4.67
2023-05-20T10:23:32.224Z,4.57
2023-05-20T10:26:08.177Z,4.40
2023-05-20T10:28:37.666Z,4.10
2023-05-20T10:31:17.669Z,4.20
2023-05-20T10:33:46.835Z,3.70
2023-05-20T10:36:26.189Z,4.17
2023-05-20T10:38:55.316Z,5.80
2023-05-20T10:41:26.566Z,4.20
2023-05-20T10:44:03.037Z,4.50
2023-05-20T10:46:40.145Z,4.10
2023-05-20T10:49:22.262Z,4.40
2023-05-20T10:51:52.457Z,4.40
2023-05-20T10:54:20.885Z,4.60
2023-05-20T10:56:54.728Z,4.33
2023-05-20T10:59:23.344Z,4.33
2023-05-20T11:01:51.315Z,5.20
2023-05-20T11:04:20.385Z,6.60
2023-05-20T11:06:54.095Z,4.50
2023-05-20T11:09:22.545Z,4.37
2023-05-20T11:11:51.836Z,5.17
2023-05-20T11:14:22.311Z,4.80
2023-05-20T11:16:54.187Z,4.70
2023-05-20T11:19:22.348Z,5.80
2023-05-20T11:21:51.410Z,5.07
2023-05-20T11:24:26.385Z,4.40
2023-05-20T11:26:54.568Z,4.90
2023-05-20T11:29:23.814Z,4.50
2023-05-20T11:31:52.216Z,4.20
2023-05-20T11:34:23.221Z,4.80
2023-05-20T11:36:57.766Z,3.90
2023-05-20T11:39:26.894Z,4.63
2023-05-20T11:41:54.965Z,4.40
2023-05-20T11:44:24.243Z,4.77
2023-05-20T11:46:52.157Z,4.93
2023-05-20T11:49:19.972Z,10.70
2023-05-20T11:51:47.805Z,4.90
2023-05-20T11:54:15.849Z,3.70
2023-05-20T11:56:45.607Z,4.53
2023-05-20T11:59:15.640Z,4.47
2023-05-20T12:01:45.575Z,5.50
2023-05-20T12:04:14.845Z,4.80
2023-05-20T12:06:44.045Z,4.70
2023-05-20T12:09:13.935Z,3.53
2023-05-20T12:11:42.329Z,4.37
2023-05-20T12:14:10.504Z,4.50
2023-05-20T12:16:38.925Z,5.20
2023-05-20T12:19:08.771Z,5.57
2023-05-20T12:21:36.684Z,5.77
2023-05-20T12:24:07.279Z,4.60
2023-05-20T12:26:35.483Z,4.70
2023-05-20T12:29:03.653Z,4.33
2023-05-20T12:31:34.697Z,4.60
2023-05-20T12:34:03.168Z,4.60
2023-05-20T12:36:33.718Z,5.40
2023-05-20T12:39:01.650Z,5.90
2023-05-20T12:41:29.512Z,4.80
2023-05-20T12:43:57.395Z,6.10
2023-05-20T12:46:25.623Z,5.33
2023-05-20T12:48:53.583Z,4.90
2023-05-20T12:51:21.564Z,4.17
2023-05-20T12:53:50.878Z,5.43
2023-05-20T12:56:19.254Z,5.27
2023-05-20T12:58:47.109Z,5.20
2023-05-20T13:01:14.987Z,4.77
2023-05-20T13:03:43.033Z,5.37
2023-05-20T13:06:10.972Z,4.47
2023-05-20T13:08:38.992Z,5.00
2023-05-20T13:11:08.262Z,4.87
2023-05-20T13:13:36.567Z,6.00
2023-05-20T13:16:04.939Z,4.57
2023-05-20T13:18:32.799Z,4.37
2023-05-20T13:21:00.635Z,4.43
2023-05-20T13:23:28.529Z,4.53
2023-05-20T13:25:56.562Z,5.20
2023-05-20T13:28:25.803Z,3.90
2023-05-20T13:30:53.753Z,4.80
2023-05-20T13:33:23.068Z,5.57
2023-05-20T13:35:51.875Z,6.10
2023-05-20T13:38:20.482Z,5.30
2023-05-20T13:40:49.095Z,5.90
2023-05-20T13:43:17.414Z,4.77
2023-05-20T13:45:47.941Z,5.20
2023-05-20T13:48:16.132Z,4.97
2023-05-20T13:50:44.000Z,5.70
2023-05-20T13:53:13.706Z,5.20
2023-05-20T13:55:42.439Z,4.33
2023-05-20T13:58:10.493Z,5.40
2023-05-20T14:00:38.745Z,4.80
2023-05-20T14:03:09.257Z,5.97
2023-05-20T14:05:37.506Z,4.10
2023-05-20T14:08:06.026Z,4.70
2023-05-20T14:10:33.970Z,5.20
2023-05-20T14:13:02.154Z,5.07
2023-05-20T14:15:30.570Z,5.30
2023-05-20T14:17:58.474Z,5.73
2023-05-20T14:20:27.806Z,5.20
2023-05-20T14:22:55.754Z,5.50
2023-05-20T14:25:23.813Z,6.47
2023-05-20T14:27:51.721Z,6.70
2023-05-20T14:30:19.548Z,6.30
2023-05-20T14:32:47.403Z,8.13
2023-05-20T14:35:16.357Z,5.93
2023-05-20T14:37:45.696Z,6.93
2023-05-20T14:40:14.438Z,5.67
2023-05-20T14:42:42.318Z,5.03
2023-05-20T14:45:11.333Z,5.57
2023-05-20T14:47:41.075Z,6.13
2023-05-20T14:50:10.024Z,5.57
2023-05-20T14:52:37.961Z,6.87
2023-05-20T14:55:08.172Z,5.77
2023-05-20T14:57:36.217Z,6.07
2023-05-20T15:00:04.544Z,5.70
2023-05-20T15:02:32.534Z,6.37
2023-05-20T15:05:01.053Z,5.77
2023-05-20T15:07:28.904Z,6.23
2023-05-20T15:09:56.772Z,5.77
2023-05-20T15:12:26.020Z,6.27
2023-05-20T15:14:53.892Z,6.10
2023-05-20T15:17:21.895Z,7.30
2023-05-20T15:19:49.809Z,6.50
2023-05-20T15:22:17.702Z,8.73
2023-05-20T15:24:45.612Z,6.70
2023-05-20T15:27:13.550Z,7.63
2023-05-20T15:29:42.766Z,7.00
2023-05-20T15:32:11.210Z,6.93
2023-05-20T15:34:39.171Z,7.00
2023-05-20T15:37:07.342Z,6.60
2023-05-20T15:39:39.110Z,7.60
2023-05-20T15:42:07.307Z,6.93
2023-05-20T15:44:36.020Z,6.17
2023-05-20T15:47:05.838Z,6.87
2023-05-20T15:49:34.000Z,7.93
2023-05-20T15:52:04.063Z,7.23
2023-05-20T15:54:32.875Z,9.10
2023-05-20T15:57:01.088Z,6.07
2023-05-20T15:59:29.071Z,6.77
2023-05-20T16:01:56.978Z,9.03
2023-05-20T16:04:26.342Z,7.03
2023-05-20T16:06:54.314Z,6.43
2023-05-20T16:09:22.281Z,7.07
2023-05-20T16:11:50.181Z,8.47
2023-05-20T16:14:18.324Z,7.07
2023-05-20T16:16:46.292Z,7.80
2023-05-20T16:19:14.477Z,6.90
2023-05-20T16:21:43.870Z,7.87
2023-05-20T16:24:12.326Z,7.70
2023-05-20T16:26:40.535Z,7.60
2023-05-20T16:29:08.558Z,6.30
2023-05-20T16:31:36.604Z,7.20
2023-05-20T16:34:05.085Z,6.83
2023-05-20T16:36:33.160Z,7.80
2023-05-20T16:39:02.616Z,7.20
2023-05-20T16:41:30.668Z,8.17
2023-05-20T16:43:58.908Z,6.47
2023-05-20T16:46:26.848Z,8.50
2023-05-20T16:48:54.842Z,7.03
2023-05-20T16:51:22.952Z,7.53
2023-05-20T16:53:51.143Z,6.83
2023-05-20T16:56:21.674Z,7.67
2023-05-20T16:58:51.399Z,6.87
2023-05-20T17:01:21.212Z,7.27
2023-05-20T17:03:49.673Z,7.77
2023-05-20T17:06:17.990Z,7.53
2023-05-20T17:08:46.098Z,6.97
2023-05-20T17:11:14.099Z,6.53
2023-05-20T17:13:43.342Z,8.37
2023-05-20T17:16:12.073Z,6.93
2023-05-20T17:18:40.238Z,8.63
2023-05-20T17:21:08.376Z,9.37
2023-05-20T17:23:36.240Z,7.73
2023-05-20T17:26:04.497Z,7.80
2023-05-20T17:28:32.400Z,6.47
2023-05-20T17:31:01.666Z,7.20
2023-05-20T17:33:29.637Z,7.07
2023-05-20T17:35:57.875Z,7.60
2023-05-20T17:38:26.406Z,7.40
2023-05-20T17:40:54.896Z,8.37
2023-05-20T17:43:25.335Z,7.27
2023-05-20T17:45:53.457Z,8.10
2023-05-20T17:48:22.733Z,7.77
2023-05-20T17:50:50.682Z,7.17
2023-05-20T17:53:21.036Z,7.00
2023-05-20T17:55:49.797Z,7.47
2023-05-20T17:58:17.909Z,7.10
2023-05-20T18:00:45.845Z,6.80
2023-05-20T18:03:14.296Z,7.23
2023-05-20T18:05:43.695Z,7.20
2023-05-20T18:08:11.712Z,7.07
2023-05-20T18:10:40.160Z,6.97
2023-05-20T18:13:08.260Z,7.37
2023-05-20T18:15:36.219Z,7.83
2023-05-20T18:18:04.385Z,8.30
2023-05-20T18:20:32.592Z,7.47
2023-05-20T18:23:01.926Z,7.87
2023-05-20T18:25:29.967Z,8.27
2023-05-20T18:27:57.939Z,7.97
2023-05-20T18:30:26.109Z,7.80
2023-05-20T18:32:55.902Z,7.30
2023-05-20T18:35:23.817Z,8.03
2023-05-20T18:37:52.088Z,10.50
2023-05-20T18:40:21.829Z,7.50
2023-05-20T18:42:49.763Z,10.87
2023-05-20T18:45:17.811Z,7.87
2023-05-20T18:47:46.286Z,6.80
2023-05-20T18:50:14.275Z,7.83
2023-05-20T18:52:42.595Z,7.17
2023-05-20T18:55:11.041Z,7.27
2023-05-20T18:57:40.861Z,7.00
2023-05-20T19:00:12.222Z,7.77
2023-05-20T19:02:41.142Z,7.50
2023-05-20T19:05:10.472Z,8.20
2023-05-20T19:07:38.573Z,8.43
2023-05-20T19:10:07.759Z,8.70
2023-05-20T19:12:35.830Z,7.23
2023-05-20T19:15:05.866Z,10.67
2023-05-20T19:17:34.032Z,7.37
2023-05-20T19:20:02.575Z,7.60
2023-05-20T19:22:30.814Z,7.80
2023-05-20T19:25:00.690Z,7.40
2023-05-20T19:27:28.687Z,9.03
2023-05-20T19:29:56.793Z,8.10
2023-05-20T19:32:26.095Z,7.93
2023-05-20T19:34:54.141Z,7.67
2023-05-20T19:37:23.270Z,8.20
2023-05-20T19:39:51.399Z,10.60
2023-05-20T19:42:19.353Z,8.80
2023-05-20T19:44:47.505Z,8.80
2023-05-20T19:47:15.666Z,9.27
2023-05-20T19:49:45.275Z,8.07
2023-05-20T19:52:13.781Z,7.87
2023-05-20T19:54:42.904Z,9.07
2023-05-20T19:57:11.312Z,10.23
2023-05-20T19:59:39.311Z,8.33
2023-05-20T20:02:07.652Z,9.83
2023-05-20T20:04:36.181Z,8.70
2023-05-20T20:07:07.527Z,8.30
2023-05-20T20:09:35.843Z,9.40
2023-05-20T20:12:04.089Z,10.43
2023-05-20T20:14:32.224Z,9.27
2023-05-20T20:17:00.534Z,9.63
2023-05-20T20:19:29.298Z,8.60
2023-05-20T20:21:58.203Z,10.53
2023-05-20T20:24:27.648Z,9.67
2023-05-20T20:26:56.804Z,10.77
2023-05-20T20:29:25.004Z,9.10
2023-05-20T20:31:53.563Z,10.40
2023-05-20T20:34:22.016Z,9.33
2023-05-20T20:36:51.217Z,9.93
2023-05-20T20:39:19.881Z,9.93
2023-05-20T20:41:51.079Z,10.90
2023-05-20T20:44:22.387Z,10.70
2023-05-20T20:46:51.404Z,9.37
2023-05-20T20:49:19.581Z,9.87
2023-05-20T20:51:47.708Z,10.80
2023-05-20T20:54:15.759Z,10.20
2023-05-20T20:56:46.958Z,10.60
2023-05-20T20:59:16.821Z,9.40
2023-05-20T21:01:45.576Z,9.90
2023-05-20T21:04:14.007Z,9.70
2023-05-20T21:06:45.923Z,9.77
2023-05-20T21:09:13.984Z,9.47
2023-05-20T21:11:42.886Z,9.10
2023-05-20T21:14:11.314Z,9.83
2023-05-20T21:16:42.398Z,9.83
2023-05-20T21:19:10.584Z,11.40
2023-05-20T21:21:38.508Z,12.10
2023-05-20T21:24:06.904Z,10.43
2023-05-20T21:26:34.820Z,10.17
2023-05-20T21:29:02.786Z,10.03
2023-05-20T21:31:30.819Z,10.87
2023-05-20T21:34:00.273Z,12.37
2023-05-20T21:36:28.208Z,11.20
2023-05-20T21:38:56.724Z,12.70
2023-05-20T21:41:24.625Z,9.67
2023-05-20T21:43:52.522Z,10.37
2023-05-20T21:46:20.535Z,11.67
2023-05-20T21:48:48.479Z,11.60
2023-05-20T21:51:17.845Z,11.87
2023-05-20T21:53:46.002Z,10.67
2023-05-20T21:56:14.169Z,14.00
2023-05-20T21:58:42.133Z,12.73
2023-05-20T22:01:10.661Z,10.67
2023-05-20T22:03:40.346Z,12.90
2023-05-20T22:06:09.179Z,8.87
2023-05-20T22:08:38.517Z,11.77
2023-05-20T22:11:07.307Z,11.17
2023-05-20T22:13:41.132Z,12.93
2023-05-20T22:16:10.457Z,11.03
2023-05-20T22:18:38.529Z,11.20
2023-05-20T22:21:06.671Z,11.03
2023-05-20T22:23:34.529Z,14.03
2023-05-20T22:26:04.814Z,10.30
2023-05-20T22:28:32.834Z,11.00
2023-05-20T22:31:01.004Z,10.87
2023-05-20T22:33:28.930Z,10.43
2023-05-20T22:35:58.079Z,13.80
2023-05-20T22:38:26.221Z,11.90
2023-05-20T22:40:54.086Z,11.17
2023-05-20T22:43:24.616Z,11.60
2023-05-20T22:45:52.831Z,10.67
2023-05-20T22:48:23.147Z,10.33
2023-05-20T22:50:54.218Z,9.80
2023-05-20T22:53:22.127Z,13.53
2023-05-20T22:55:50.211Z,10.07
2023-05-20T22:58:18.168Z,10.80
2023-05-20T23:00:47.507Z,12.50
2023-05-20T23:03:15.922Z,11.50
2023-05-20T23:05:43.899Z,10.93
2023-05-20T23:08:11.806Z,12.67
2023-05-20T23:10:39.864Z,10.63
2023-05-20T23:13:07.782Z,13.47
2023-05-20T23:15:35.825Z,12.00
2023-05-20T23:18:05.401Z,12.00
2023-05-20T23:20:33.507Z,12.00
2023-05-20T23:23:05.763Z,11.20
2023-05-20T23:25:39.187Z,10.50
2023-05-20T23:28:07.555Z,12.90
2023-05-20T23:30:36.454Z,10.30
2023-05-20T23:33:06.070Z,13.27
2023-05-20T23:35:34.242Z,10.90
2023-05-20T23:38:02.486Z,9.90
2023-05-20T23:40:30.508Z,11.20
2023-05-20T23:42:58.550Z,11.30
2023-05-20T23:45:26.584Z,12.43
2023-05-20T23:47:55.514Z,11.53
2023-05-20T23:50:24.959Z,12.17
2023-05-20T23:52:52.914Z,10.87
2023-05-20T23:55:21.290Z,12.83
2023-05-20T23:57:49.736Z,13.47
